Share

Mud Butte, SD (57758)

Black Hills-Ice (KSPF) Elev 3898 ft | 44.48 °N, 103.78 °W | Change Station

Current weather conditions updated 30 minutes ago

Clear
Clear
57 °F
Feels Like 57 °F
N
5
Wind Variable Wind from ENE
Sunrise 6:01 AM
Sunset 7:40 PM
Moon Waning Gibbous

Today is forecast to be Much Warmer than yesterday.

Pressure 29.76 in
Visibility 10.0 miles
Clouds Clear
Dew Point 39 °F
Humidity 51%
Rainfall 0.00 in
Snow Depth Not available.
UV 8 out of 16
Pollen 11.20 out of 12
Air Quality Not available.
Flu Activity Sporadic
METAR KSPF 181715Z AUTO 07004KT 10SM CLR 14/04 A2976 RMK AO2

More Conditions Fewer Conditions

Pressure 29.76 in
Visibility 10.0 miles
Clouds Clear
Dew Point 39 °F
Humidity 51%
Rainfall 0.00 in
Snow Depth Not available.
UV 8 out of 16
Pollen 11.20 out of 12
Air Quality Not available.
Flu Activity Sporadic
METAR KSPF 181715Z AUTO 07004KT 10SM CLR 14/04 A2976 RMK AO2

More Conditions Fewer Conditions

10-Day Weather Forecast

Almanac

Astronomy

Apr. 18, 2014 Rise Set
Actual Time 6:01 AM MDT 7:40 PM MDT
Civil Twilight 5:30 AM MDT 8:11 PM MDT
Nautical Twilight 4:52 AM MDT 8:49 PM MDT
Astronomical Twilight 4:12 AM MDT 9:30 PM MDT
Moon 11:34 PM MDT 8:19 AM MDT
Length of Visible Light 14h 41m
Length of Day
13h 39m
Tomorrow will be 2m 58s longer.
Waning Gibbous, 87% of the Moon is Illuminated
Today
Waning Gibbous
Apr 22
Last Quarter
Apr 29
New
May 6
First Quarter
May 14
Full

Today's Extremes

State Highs State Lows

Community

  • What's for Lunch?
    What's for Lunch?
  • SUNRISE THROUGH THE TREES.
    SUNRISE THROUGH THE TREES.
  • Dog Wood Blossoms
    Dog Wood Blossoms
  • Morning Light
    Morning Light
  • New Day
    New Day

WunderPhotos

Upload Photos

1,702,433 photos uploaded!

Nearby

Snow Depth

Station Depth Elevation
Blind Park 23 in 6890 ft

Coastal Water Temperatures

Place Temperature
No Stations Reporting

Earthquake Activity

City Distance Mag. Time & Date
No recent earthquake activity has been reported nearby.
Minimum magnitude displayed is 2.5.

Nearby Weather Stations

There are no personal weather stations in this area.

What do you think?

We're not finished. Please let us know what you like, what you don't like, and what you are still missing.